sensor_id;sensor_type;location;lat;lon;timestamp;P1;durP1;ratioP1;P2;durP2;ratioP2
66559;SDS011;53413;49.878;8.142;2024-02-21T00:00:51;11.90;;;3.40;;
66559;SDS011;53413;49.878;8.142;2024-02-21T00:03:17;13.15;;;3.83;;
66559;SDS011;53413;49.878;8.142;2024-02-21T00:05:45;12.02;;;3.55;;
66559;SDS011;53413;49.878;8.142;2024-02-21T00:08:10;11.10;;;3.60;;
66559;SDS011;53413;49.878;8.142;2024-02-21T00:10:35;12.18;;;3.67;;
66559;SDS011;53413;49.878;8.142;2024-02-21T00:13:01;9.77;;;3.30;;
66559;SDS011;53413;49.878;8.142;2024-02-21T00:15:27;11.00;;;3.70;;
66559;SDS011;53413;49.878;8.142;2024-02-21T00:17:52;10.55;;;3.30;;
66559;SDS011;53413;49.878;8.142;2024-02-21T00:20:17;12.07;;;3.70;;
66559;SDS011;53413;49.878;8.142;2024-02-21T00:22:46;11.33;;;3.97;;
66559;SDS011;53413;49.878;8.142;2024-02-21T00:25:11;13.80;;;3.30;;
66559;SDS011;53413;49.878;8.142;2024-02-21T00:27:37;14.97;;;3.93;;
66559;SDS011;53413;49.878;8.142;2024-02-21T00:30:02;14.40;;;3.53;;
66559;SDS011;53413;49.878;8.142;2024-02-21T00:32:28;13.63;;;3.77;;
66559;SDS011;53413;49.878;8.142;2024-02-21T00:34:53;10.37;;;3.37;;
66559;SDS011;53413;49.878;8.142;2024-02-21T00:37:19;14.00;;;3.70;;
66559;SDS011;53413;49.878;8.142;2024-02-21T00:39:44;14.67;;;3.47;;
66559;SDS011;53413;49.878;8.142;2024-02-21T00:42:09;13.20;;;3.40;;
66559;SDS011;53413;49.878;8.142;2024-02-21T00:44:35;12.27;;;3.67;;
66559;SDS011;53413;49.878;8.142;2024-02-21T00:47:00;11.40;;;3.60;;
66559;SDS011;53413;49.878;8.142;2024-02-21T00:49:25;11.70;;;3.37;;
66559;SDS011;53413;49.878;8.142;2024-02-21T00:51:51;14.27;;;3.63;;
66559;SDS011;53413;49.878;8.142;2024-02-21T00:54:16;12.90;;;3.40;;
66559;SDS011;53413;49.878;8.142;2024-02-21T00:56:42;12.27;;;3.33;;
66559;SDS011;53413;49.878;8.142;2024-02-21T00:59:08;10.05;;;3.47;;
66559;SDS011;53413;49.878;8.142;2024-02-21T01:01:33;12.47;;;3.20;;
66559;SDS011;53413;49.878;8.142;2024-02-21T01:03:58;10.67;;;3.23;;
66559;SDS011;53413;49.878;8.142;2024-02-21T01:06:23;14.07;;;3.50;;
66559;SDS011;53413;49.878;8.142;2024-02-21T01:08:49;10.23;;;3.08;;
66559;SDS011;53413;49.878;8.142;2024-02-21T01:11:15;13.07;;;3.42;;
66559;SDS011;53413;49.878;8.142;2024-02-21T01:13:41;12.53;;;3.40;;
66559;SDS011;53413;49.878;8.142;2024-02-21T01:16:06;12.20;;;3.40;;
66559;SDS011;53413;49.878;8.142;2024-02-21T01:18:32;10.23;;;3.07;;
66559;SDS011;53413;49.878;8.142;2024-02-21T01:20:58;11.23;;;3.28;;
66559;SDS011;53413;49.878;8.142;2024-02-21T01:23:24;10.80;;;3.13;;
66559;SDS011;53413;49.878;8.142;2024-02-21T01:25:49;11.27;;;3.10;;
66559;SDS011;53413;49.878;8.142;2024-02-21T01:28:16;13.55;;;3.00;;
66559;SDS011;53413;49.878;8.142;2024-02-21T01:30:41;11.23;;;3.00;;
66559;SDS011;53413;49.878;8.142;2024-02-21T01:33:06;10.40;;;3.20;;
66559;SDS011;53413;49.878;8.142;2024-02-21T01:35:32;11.60;;;3.13;;
66559;SDS011;53413;49.878;8.142;2024-02-21T01:37:57;11.57;;;3.13;;
66559;SDS011;53413;49.878;8.142;2024-02-21T01:40:22;9.25;;;3.17;;
66559;SDS011;53413;49.878;8.142;2024-02-21T01:42:48;12.00;;;3.10;;
66559;SDS011;53413;49.878;8.142;2024-02-21T01:45:13;12.53;;;3.00;;
66559;SDS011;53413;49.878;8.142;2024-02-21T01:47:39;9.00;;;3.20;;
66559;SDS011;53413;49.878;8.142;2024-02-21T01:50:05;10.02;;;3.25;;
66559;SDS011;53413;49.878;8.142;2024-02-21T01:52:31;10.03;;;3.40;;
66559;SDS011;53413;49.878;8.142;2024-02-21T01:54:59;8.43;;;3.00;;
66559;SDS011;53413;49.878;8.142;2024-02-21T01:57:25;9.30;;;3.25;;
66559;SDS011;53413;49.878;8.142;2024-02-21T01:59:50;11.90;;;3.03;;
66559;SDS011;53413;49.878;8.142;2024-02-21T02:02:17;12.30;;;3.28;;
66559;SDS011;53413;49.878;8.142;2024-02-21T02:04:42;10.93;;;3.47;;
66559;SDS011;53413;49.878;8.142;2024-02-21T02:07:09;11.13;;;3.03;;
66559;SDS011;53413;49.878;8.142;2024-02-21T02:09:35;12.63;;;3.20;;
66559;SDS011;53413;49.878;8.142;2024-02-21T02:12:01;12.52;;;3.30;;
66559;SDS011;53413;49.878;8.142;2024-02-21T02:14:27;13.18;;;3.08;;
66559;SDS011;53413;49.878;8.142;2024-02-21T02:16:52;11.87;;;3.20;;
66559;SDS011;53413;49.878;8.142;2024-02-21T02:19:17;10.87;;;3.20;;
66559;SDS011;53413;49.878;8.142;2024-02-21T02:21:46;12.57;;;3.27;;
66559;SDS011;53413;49.878;8.142;2024-02-21T02:24:18;9.52;;;3.38;;
66559;SDS011;53413;49.878;8.142;2024-02-21T02:26:45;9.52;;;3.40;;
66559;SDS011;53413;49.878;8.142;2024-02-21T02:29:10;11.80;;;3.30;;
66559;SDS011;53413;49.878;8.142;2024-02-21T02:31:36;10.93;;;3.20;;
66559;SDS011;53413;49.878;8.142;2024-02-21T02:34:02;11.27;;;3.63;;
66559;SDS011;53413;49.878;8.142;2024-02-21T02:36:28;9.53;;;3.20;;
66559;SDS011;53413;49.878;8.142;2024-02-21T02:38:53;9.93;;;3.47;;
66559;SDS011;53413;49.878;8.142;2024-02-21T02:41:18;13.60;;;3.43;;
66559;SDS011;53413;49.878;8.142;2024-02-21T02:43:44;11.48;;;3.25;;
66559;SDS011;53413;49.878;8.142;2024-02-21T02:46:09;10.52;;;3.53;;
66559;SDS011;53413;49.878;8.142;2024-02-21T02:48:34;11.17;;;3.10;;
66559;SDS011;53413;49.878;8.142;2024-02-21T02:51:00;12.90;;;3.57;;
66559;SDS011;53413;49.878;8.142;2024-02-21T02:53:25;10.30;;;3.20;;
66559;SDS011;53413;49.878;8.142;2024-02-21T02:55:50;12.77;;;3.83;;
66559;SDS011;53413;49.878;8.142;2024-02-21T02:58:16;11.53;;;3.20;;
66559;SDS011;53413;49.878;8.142;2024-02-21T03:00:41;15.27;;;3.47;;
66559;SDS011;53413;49.878;8.142;2024-02-21T03:03:06;12.07;;;3.50;;
66559;SDS011;53413;49.878;8.142;2024-02-21T03:05:33;12.80;;;3.17;;
66559;SDS011;53413;49.878;8.142;2024-02-21T03:07:58;11.67;;;3.23;;
66559;SDS011;53413;49.878;8.142;2024-02-21T03:10:24;11.83;;;3.30;;
66559;SDS011;53413;49.878;8.142;2024-02-21T03:12:49;11.70;;;3.20;;
66559;SDS011;53413;49.878;8.142;2024-02-21T03:15:17;13.20;;;3.50;;
66559;SDS011;53413;49.878;8.142;2024-02-21T03:17:43;10.27;;;3.30;;
66559;SDS011;53413;49.878;8.142;2024-02-21T03:20:08;10.07;;;3.07;;
66559;SDS011;53413;49.878;8.142;2024-02-21T03:22:35;10.10;;;3.05;;
66559;SDS011;53413;49.878;8.142;2024-02-21T03:25:00;13.10;;;3.22;;
66559;SDS011;53413;49.878;8.142;2024-02-21T03:27:26;11.20;;;3.33;;
66559;SDS011;53413;49.878;8.142;2024-02-21T03:29:51;11.77;;;3.50;;
66559;SDS011;53413;49.878;8.142;2024-02-21T03:32:16;9.83;;;3.47;;
66559;SDS011;53413;49.878;8.142;2024-02-21T03:34:42;14.65;;;3.60;;
66559;SDS011;53413;49.878;8.142;2024-02-21T03:37:07;11.02;;;3.20;;
66559;SDS011;53413;49.878;8.142;2024-02-21T03:39:32;9.43;;;3.30;;
66559;SDS011;53413;49.878;8.142;2024-02-21T03:41:58;13.97;;;3.60;;
66559;SDS011;53413;49.878;8.142;2024-02-21T03:44:26;11.65;;;3.25;;
66559;SDS011;53413;49.878;8.142;2024-02-21T03:46:52;13.80;;;3.57;;
66559;SDS011;53413;49.878;8.142;2024-02-21T03:49:17;10.65;;;3.22;;
66559;SDS011;53413;49.878;8.142;2024-02-21T03:51:43;10.47;;;3.33;;
66559;SDS011;53413;49.878;8.142;2024-02-21T03:54:08;13.60;;;3.77;;
66559;SDS011;53413;49.878;8.142;2024-02-21T03:56:37;14.33;;;3.80;;
66559;SDS011;53413;49.878;8.142;2024-02-21T03:59:04;11.73;;;3.58;;
66559;SDS011;53413;49.878;8.142;2024-02-21T04:01:30;11.80;;;4.07;;
66559;SDS011;53413;49.878;8.142;2024-02-21T04:03:55;10.00;;;3.87;;
66559;SDS011;53413;49.878;8.142;2024-02-21T04:06:21;14.20;;;4.50;;
66559;SDS011;53413;49.878;8.142;2024-02-21T04:08:46;11.97;;;3.80;;
66559;SDS011;53413;49.878;8.142;2024-02-21T04:11:11;12.27;;;3.90;;
66559;SDS011;53413;49.878;8.142;2024-02-21T04:13:36;11.67;;;3.63;;
66559;SDS011;53413;49.878;8.142;2024-02-21T04:16:02;12.23;;;4.10;;
66559;SDS011;53413;49.878;8.142;2024-02-21T04:18:28;18.77;;;4.70;;
66559;SDS011;53413;49.878;8.142;2024-02-21T04:20:53;15.30;;;4.17;;
66559;SDS011;53413;49.878;8.142;2024-02-21T04:23:19;11.13;;;4.13;;
66559;SDS011;53413;49.878;8.142;2024-02-21T04:25:44;12.80;;;4.30;;
66559;SDS011;53413;49.878;8.142;2024-02-21T04:28:09;11.95;;;4.18;;
66559;SDS011;53413;49.878;8.142;2024-02-21T04:30:35;12.77;;;4.23;;
66559;SDS011;53413;49.878;8.142;2024-02-21T04:33:00;13.27;;;4.07;;
66559;SDS011;53413;49.878;8.142;2024-02-21T04:35:25;11.03;;;3.70;;
66559;SDS011;53413;49.878;8.142;2024-02-21T04:37:51;12.80;;;4.00;;
66559;SDS011;53413;49.878;8.142;2024-02-21T04:40:16;13.20;;;4.40;;
66559;SDS011;53413;49.878;8.142;2024-02-21T04:42:42;12.52;;;4.30;;
66559;SDS011;53413;49.878;8.142;2024-02-21T04:45:07;14.67;;;4.30;;
66559;SDS011;53413;49.878;8.142;2024-02-21T04:47:33;12.48;;;4.18;;
66559;SDS011;53413;49.878;8.142;2024-02-21T04:49:58;17.73;;;5.30;;
66559;SDS011;53413;49.878;8.142;2024-02-21T04:52:23;14.90;;;5.20;;
66559;SDS011;53413;49.878;8.142;2024-02-21T04:54:49;13.73;;;4.63;;
66559;SDS011;53413;49.878;8.142;2024-02-21T04:57:15;14.43;;;3.90;;
66559;SDS011;53413;49.878;8.142;2024-02-21T04:59:43;13.13;;;4.22;;
66559;SDS011;53413;49.878;8.142;2024-02-21T05:02:12;15.05;;;4.60;;
66559;SDS011;53413;49.878;8.142;2024-02-21T05:04:38;14.57;;;4.47;;
66559;SDS011;53413;49.878;8.142;2024-02-21T05:07:04;17.00;;;4.23;;
66559;SDS011;53413;49.878;8.142;2024-02-21T05:09:30;12.60;;;3.85;;
66559;SDS011;53413;49.878;8.142;2024-02-21T05:11:55;12.93;;;4.20;;
66559;SDS011;53413;49.878;8.142;2024-02-21T05:14:21;14.03;;;4.20;;
66559;SDS011;53413;49.878;8.142;2024-02-21T05:16:46;14.32;;;4.10;;
66559;SDS011;53413;49.878;8.142;2024-02-21T05:19:12;15.20;;;4.43;;
66559;SDS011;53413;49.878;8.142;2024-02-21T05:21:37;10.27;;;4.03;;
66559;SDS011;53413;49.878;8.142;2024-02-21T05:24:02;15.60;;;4.60;;
66559;SDS011;53413;49.878;8.142;2024-02-21T05:26:28;14.40;;;4.30;;
66559;SDS011;53413;49.878;8.142;2024-02-21T05:28:54;12.48;;;4.32;;
66559;SDS011;53413;49.878;8.142;2024-02-21T05:31:20;11.13;;;4.33;;
66559;SDS011;53413;49.878;8.142;2024-02-21T05:33:46;13.82;;;4.47;;
66559;SDS011;53413;49.878;8.142;2024-02-21T05:36:12;15.48;;;3.97;;
66559;SDS011;53413;49.878;8.142;2024-02-21T05:38:37;13.05;;;3.90;;
66559;SDS011;53413;49.878;8.142;2024-02-21T05:41:03;12.07;;;4.20;;
66559;SDS011;53413;49.878;8.142;2024-02-21T05:43:29;12.05;;;4.07;;
66559;SDS011;53413;49.878;8.142;2024-02-21T05:45:54;12.43;;;3.93;;
66559;SDS011;53413;49.878;8.142;2024-02-21T05:48:20;11.77;;;3.90;;
66559;SDS011;53413;49.878;8.142;2024-02-21T05:50:45;12.60;;;3.97;;
66559;SDS011;53413;49.878;8.142;2024-02-21T05:53:11;12.67;;;3.93;;
66559;SDS011;53413;49.878;8.142;2024-02-21T05:55:36;14.70;;;4.27;;
66559;SDS011;53413;49.878;8.142;2024-02-21T05:58:02;12.68;;;4.30;;
66559;SDS011;53413;49.878;8.142;2024-02-21T06:00:28;13.37;;;4.10;;
66559;SDS011;53413;49.878;8.142;2024-02-21T06:02:53;12.93;;;4.30;;
66559;SDS011;53413;49.878;8.142;2024-02-21T06:05:19;13.90;;;4.17;;
66559;SDS011;53413;49.878;8.142;2024-02-21T06:07:44;14.33;;;4.50;;
66559;SDS011;53413;49.878;8.142;2024-02-21T06:10:09;12.83;;;4.43;;
66559;SDS011;53413;49.878;8.142;2024-02-21T06:12:35;15.50;;;4.80;;
66559;SDS011;53413;49.878;8.142;2024-02-21T06:15:00;13.20;;;4.60;;
66559;SDS011;53413;49.878;8.142;2024-02-21T06:17:26;16.00;;;4.73;;
66559;SDS011;53413;49.878;8.142;2024-02-21T06:19:51;11.77;;;4.50;;
66559;SDS011;53413;49.878;8.142;2024-02-21T06:22:16;16.40;;;4.53;;
66559;SDS011;53413;49.878;8.142;2024-02-21T06:24:42;13.90;;;4.80;;
66559;SDS011;53413;49.878;8.142;2024-02-21T06:27:08;16.83;;;5.10;;
66559;SDS011;53413;49.878;8.142;2024-02-21T06:29:34;14.53;;;4.70;;
66559;SDS011;53413;49.878;8.142;2024-02-21T06:31:59;17.33;;;5.10;;
66559;SDS011;53413;49.878;8.142;2024-02-21T06:34:25;12.95;;;4.63;;
66559;SDS011;53413;49.878;8.142;2024-02-21T06:36:51;11.70;;;3.97;;
66559;SDS011;53413;49.878;8.142;2024-02-21T06:39:16;15.07;;;4.10;;
66559;SDS011;53413;49.878;8.142;2024-02-21T06:41:41;15.93;;;4.50;;
66559;SDS011;53413;49.878;8.142;2024-02-21T06:44:07;11.13;;;3.90;;
66559;SDS011;53413;49.878;8.142;2024-02-21T06:46:32;12.73;;;3.57;;
66559;SDS011;53413;49.878;8.142;2024-02-21T06:48:58;11.02;;;3.47;;
66559;SDS011;53413;49.878;8.142;2024-02-21T06:51:25;10.10;;;3.53;;
66559;SDS011;53413;49.878;8.142;2024-02-21T06:53:51;9.10;;;3.03;;
66559;SDS011;53413;49.878;8.142;2024-02-21T06:56:16;11.37;;;2.90;;
66559;SDS011;53413;49.878;8.142;2024-02-21T06:58:41;9.67;;;2.97;;
66559;SDS011;53413;49.878;8.142;2024-02-21T07:01:07;9.63;;;2.90;;
66559;SDS011;53413;49.878;8.142;2024-02-21T07:03:33;10.63;;;2.97;;
66559;SDS011;53413;49.878;8.142;2024-02-21T07:05:58;8.18;;;2.50;;
66559;SDS011;53413;49.878;8.142;2024-02-21T07:08:24;10.03;;;2.57;;
66559;SDS011;53413;49.878;8.142;2024-02-21T07:10:49;11.20;;;2.63;;
66559;SDS011;53413;49.878;8.142;2024-02-21T07:13:14;8.10;;;2.47;;
66559;SDS011;53413;49.878;8.142;2024-02-21T07:15:40;12.13;;;2.85;;
66559;SDS011;53413;49.878;8.142;2024-02-21T07:18:07;8.27;;;2.35;;
66559;SDS011;53413;49.878;8.142;2024-02-21T07:20:32;9.37;;;2.80;;
66559;SDS011;53413;49.878;8.142;2024-02-21T07:23:06;8.65;;;2.70;;
66559;SDS011;53413;49.878;8.142;2024-02-21T07:25:32;9.47;;;2.77;;
66559;SDS011;53413;49.878;8.142;2024-02-21T07:27:57;9.23;;;2.93;;
66559;SDS011;53413;49.878;8.142;2024-02-21T07:30:22;8.85;;;2.65;;
66559;SDS011;53413;49.878;8.142;2024-02-21T07:32:49;7.18;;;2.58;;
66559;SDS011;53413;49.878;8.142;2024-02-21T07:35:15;8.32;;;2.70;;
66559;SDS011;53413;49.878;8.142;2024-02-21T07:37:40;8.53;;;2.50;;
66559;SDS011;53413;49.878;8.142;2024-02-21T07:40:06;6.67;;;2.43;;
66559;SDS011;53413;49.878;8.142;2024-02-21T07:42:37;7.63;;;2.40;;
66559;SDS011;53413;49.878;8.142;2024-02-21T07:45:02;8.47;;;2.77;;
66559;SDS011;53413;49.878;8.142;2024-02-21T07:47:28;10.95;;;3.20;;
66559;SDS011;53413;49.878;8.142;2024-02-21T07:49:53;8.25;;;2.72;;
66559;SDS011;53413;49.878;8.142;2024-02-21T07:52:19;7.40;;;2.40;;
66559;SDS011;53413;49.878;8.142;2024-02-21T07:54:44;7.63;;;2.73;;
66559;SDS011;53413;49.878;8.142;2024-02-21T07:57:09;7.97;;;2.37;;
66559;SDS011;53413;49.878;8.142;2024-02-21T07:59:35;8.33;;;2.70;;
66559;SDS011;53413;49.878;8.142;2024-02-21T08:02:00;8.93;;;2.77;;
66559;SDS011;53413;49.878;8.142;2024-02-21T08:04:25;7.70;;;2.60;;
66559;SDS011;53413;49.878;8.142;2024-02-21T08:06:54;5.90;;;2.33;;
66559;SDS011;53413;49.878;8.142;2024-02-21T08:09:26;9.80;;;2.70;;
66559;SDS011;53413;49.878;8.142;2024-02-21T08:11:51;8.68;;;3.00;;
66559;SDS011;53413;49.878;8.142;2024-02-21T08:14:17;8.80;;;2.67;;
66559;SDS011;53413;49.878;8.142;2024-02-21T08:16:42;9.17;;;2.87;;
66559;SDS011;53413;49.878;8.142;2024-02-21T08:19:09;10.98;;;2.78;;
66559;SDS011;53413;49.878;8.142;2024-02-21T08:21:35;11.07;;;3.10;;
66559;SDS011;53413;49.878;8.142;2024-02-21T08:24:01;8.38;;;2.65;;
66559;SDS011;53413;49.878;8.142;2024-02-21T08:26:26;7.10;;;2.63;;
66559;SDS011;53413;49.878;8.142;2024-02-21T08:28:55;7.22;;;2.90;;
66559;SDS011;53413;49.878;8.142;2024-02-21T08:31:23;7.80;;;2.50;;
66559;SDS011;53413;49.878;8.142;2024-02-21T08:33:49;8.20;;;2.97;;
66559;SDS011;53413;49.878;8.142;2024-02-21T08:36:19;9.43;;;2.97;;
66559;SDS011;53413;49.878;8.142;2024-02-21T08:38:45;10.48;;;2.92;;
66559;SDS011;53413;49.878;8.142;2024-02-21T08:41:11;8.27;;;2.78;;
66559;SDS011;53413;49.878;8.142;2024-02-21T08:43:37;9.05;;;2.83;;
66559;SDS011;53413;49.878;8.142;2024-02-21T08:46:02;9.63;;;3.10;;
66559;SDS011;53413;49.878;8.142;2024-02-21T08:48:28;8.23;;;2.87;;
66559;SDS011;53413;49.878;8.142;2024-02-21T08:50:53;7.75;;;2.63;;
66559;SDS011;53413;49.878;8.142;2024-02-21T08:53:19;10.02;;;3.05;;
66559;SDS011;53413;49.878;8.142;2024-02-21T08:55:45;7.63;;;2.75;;
66559;SDS011;53413;49.878;8.142;2024-02-21T08:58:10;9.80;;;2.80;;
66559;SDS011;53413;49.878;8.142;2024-02-21T09:00:36;9.43;;;3.05;;
66559;SDS011;53413;49.878;8.142;2024-02-21T09:03:02;9.30;;;3.10;;
66559;SDS011;53413;49.878;8.142;2024-02-21T09:05:27;6.40;;;2.83;;
66559;SDS011;53413;49.878;8.142;2024-02-21T09:07:53;7.67;;;3.07;;
66559;SDS011;53413;49.878;8.142;2024-02-21T09:10:18;8.13;;;3.20;;
66559;SDS011;53413;49.878;8.142;2024-02-21T09:12:44;7.17;;;2.90;;
66559;SDS011;53413;49.878;8.142;2024-02-21T09:15:09;7.93;;;2.60;;
66559;SDS011;53413;49.878;8.142;2024-02-21T09:17:35;6.97;;;2.90;;
66559;SDS011;53413;49.878;8.142;2024-02-21T09:20:01;7.63;;;2.97;;
66559;SDS011;53413;49.878;8.142;2024-02-21T09:22:28;7.38;;;2.58;;
66559;SDS011;53413;49.878;8.142;2024-02-21T09:24:54;6.88;;;2.88;;
66559;SDS011;53413;49.878;8.142;2024-02-21T09:27:20;7.82;;;3.00;;
66559;SDS011;53413;49.878;8.142;2024-02-21T09:29:45;7.90;;;3.10;;
66559;SDS011;53413;49.878;8.142;2024-02-21T09:32:10;10.93;;;2.97;;
66559;SDS011;53413;49.878;8.142;2024-02-21T09:34:36;8.07;;;2.80;;
66559;SDS011;53413;49.878;8.142;2024-02-21T09:37:01;7.87;;;3.00;;
66559;SDS011;53413;49.878;8.142;2024-02-21T09:39:27;8.50;;;2.77;;
66559;SDS011;53413;49.878;8.142;2024-02-21T09:41:58;7.28;;;3.10;;
66559;SDS011;53413;49.878;8.142;2024-02-21T09:44:31;7.82;;;3.10;;
66559;SDS011;53413;49.878;8.142;2024-02-21T09:49:32;8.85;;;2.97;;
66559;SDS011;53413;49.878;8.142;2024-02-21T09:52:02;8.75;;;3.00;;
66559;SDS011;53413;49.878;8.142;2024-02-21T09:54:29;9.53;;;3.20;;
66559;SDS011;53413;49.878;8.142;2024-02-21T09:56:56;7.10;;;2.75;;
66559;SDS011;53413;49.878;8.142;2024-02-21T09:59:21;9.10;;;2.88;;
66559;SDS011;53413;49.878;8.142;2024-02-21T10:01:47;7.45;;;2.92;;
66559;SDS011;53413;49.878;8.142;2024-02-21T10:04:12;9.43;;;2.50;;
66559;SDS011;53413;49.878;8.142;2024-02-21T10:06:38;9.45;;;2.90;;
66559;SDS011;53413;49.878;8.142;2024-02-21T10:09:05;8.13;;;2.90;;
66559;SDS011;53413;49.878;8.142;2024-02-21T10:11:31;9.50;;;2.67;;
66559;SDS011;53413;49.878;8.142;2024-02-21T10:14:06;7.43;;;2.70;;
66559;SDS011;53413;49.878;8.142;2024-02-21T10:16:32;9.50;;;2.45;;
66559;SDS011;53413;49.878;8.142;2024-02-21T10:18:58;9.25;;;2.83;;
66559;SDS011;53413;49.878;8.142;2024-02-21T10:21:24;7.93;;;2.30;;
66559;SDS011;53413;49.878;8.142;2024-02-21T10:23:50;7.53;;;2.40;;
66559;SDS011;53413;49.878;8.142;2024-02-21T10:26:17;8.98;;;2.40;;
66559;SDS011;53413;49.878;8.142;2024-02-21T10:28:43;7.87;;;2.23;;
66559;SDS011;53413;49.878;8.142;2024-02-21T10:31:11;6.47;;;2.10;;
66559;SDS011;53413;49.878;8.142;2024-02-21T10:33:37;7.97;;;2.10;;
66559;SDS011;53413;49.878;8.142;2024-02-21T10:36:09;7.65;;;2.45;;
66559;SDS011;53413;49.878;8.142;2024-02-21T10:38:38;6.60;;;2.30;;
66559;SDS011;53413;49.878;8.142;2024-02-21T10:41:04;6.23;;;2.17;;
66559;SDS011;53413;49.878;8.142;2024-02-21T10:43:33;7.28;;;2.25;;
66559;SDS011;53413;49.878;8.142;2024-02-21T10:46:05;10.07;;;2.72;;
66559;SDS011;53413;49.878;8.142;2024-02-21T10:48:33;6.85;;;2.25;;
66559;SDS011;53413;49.878;8.142;2024-02-21T10:51:14;8.52;;;2.30;;
66559;SDS011;53413;49.878;8.142;2024-02-21T10:56:33;9.27;;;2.38;;
66559;SDS011;53413;49.878;8.142;2024-02-21T10:59:02;7.00;;;2.58;;
66559;SDS011;53413;49.878;8.142;2024-02-21T11:01:29;6.97;;;2.28;;
66559;SDS011;53413;49.878;8.142;2024-02-21T11:04:02;7.03;;;2.38;;
66559;SDS011;53413;49.878;8.142;2024-02-21T11:06:30;8.17;;;2.50;;
66559;SDS011;53413;49.878;8.142;2024-02-21T11:09:03;7.05;;;2.40;;
66559;SDS011;53413;49.878;8.142;2024-02-21T11:11:35;9.55;;;2.75;;
66559;SDS011;53413;49.878;8.142;2024-02-21T11:14:26;9.05;;;2.78;;
66559;SDS011;53413;49.878;8.142;2024-02-21T11:16:51;7.88;;;2.40;;
66559;SDS011;53413;49.878;8.142;2024-02-21T11:21:46;8.53;;;2.83;;
66559;SDS011;53413;49.878;8.142;2024-02-21T11:24:13;8.05;;;2.55;;
66559;SDS011;53413;49.878;8.142;2024-02-21T11:26:39;7.95;;;2.60;;
66559;SDS011;53413;49.878;8.142;2024-02-21T11:29:07;8.17;;;2.80;;
66559;SDS011;53413;49.878;8.142;2024-02-21T11:31:43;7.03;;;2.45;;
66559;SDS011;53413;49.878;8.142;2024-02-21T11:34:11;7.55;;;3.00;;
66559;SDS011;53413;49.878;8.142;2024-02-21T11:36:47;8.57;;;3.00;;
66559;SDS011;53413;49.878;8.142;2024-02-21T11:39:17;11.93;;;3.25;;
66559;SDS011;53413;49.878;8.142;2024-02-21T11:41:47;7.90;;;2.80;;
66559;SDS011;53413;49.878;8.142;2024-02-21T11:44:25;7.05;;;2.95;;
66559;SDS011;53413;49.878;8.142;2024-02-21T11:46:50;9.80;;;2.80;;
66559;SDS011;53413;49.878;8.142;2024-02-21T11:49:16;8.82;;;3.00;;
66559;SDS011;53413;49.878;8.142;2024-02-21T11:51:41;8.93;;;3.00;;
66559;SDS011;53413;49.878;8.142;2024-02-21T11:54:06;11.37;;;3.33;;
66559;SDS011;53413;49.878;8.142;2024-02-21T11:56:32;8.03;;;3.00;;
66559;SDS011;53413;49.878;8.142;2024-02-21T11:58:58;8.67;;;2.93;;
66559;SDS011;53413;49.878;8.142;2024-02-21T12:01:24;8.95;;;2.95;;
66559;SDS011;53413;49.878;8.142;2024-02-21T12:03:49;8.23;;;3.07;;
66559;SDS011;53413;49.878;8.142;2024-02-21T12:06:16;8.52;;;3.33;;
66559;SDS011;53413;49.878;8.142;2024-02-21T12:08:46;8.87;;;3.20;;
66559;SDS011;53413;49.878;8.142;2024-02-21T12:11:21;9.13;;;2.80;;
66559;SDS011;53413;49.878;8.142;2024-02-21T12:14:08;8.00;;;3.15;;
66559;SDS011;53413;49.878;8.142;2024-02-21T12:16:34;6.90;;;2.72;;
66559;SDS011;53413;49.878;8.142;2024-02-21T12:19:03;7.67;;;3.20;;
66559;SDS011;53413;49.878;8.142;2024-02-21T12:21:32;9.45;;;3.20;;
66559;SDS011;53413;49.878;8.142;2024-02-21T12:24:14;7.63;;;2.77;;
66559;SDS011;53413;49.878;8.142;2024-02-21T12:26:40;9.88;;;3.10;;
66559;SDS011;53413;49.878;8.142;2024-02-21T12:29:06;9.43;;;2.72;;
66559;SDS011;53413;49.878;8.142;2024-02-21T12:31:34;9.32;;;2.60;;
66559;SDS011;53413;49.878;8.142;2024-02-21T12:34:01;9.23;;;2.90;;
66559;SDS011;53413;49.878;8.142;2024-02-21T12:36:26;6.47;;;2.70;;
66559;SDS011;53413;49.878;8.142;2024-02-21T12:38:51;8.77;;;2.73;;
66559;SDS011;53413;49.878;8.142;2024-02-21T12:41:16;8.37;;;2.60;;
66559;SDS011;53413;49.878;8.142;2024-02-21T12:43:42;11.07;;;2.70;;
66559;SDS011;53413;49.878;8.142;2024-02-21T12:46:07;8.00;;;2.40;;
66559;SDS011;53413;49.878;8.142;2024-02-21T12:48:33;8.67;;;2.50;;
66559;SDS011;53413;49.878;8.142;2024-02-21T12:50:59;7.63;;;2.47;;
66559;SDS011;53413;49.878;8.142;2024-02-21T12:53:24;7.30;;;2.47;;
66559;SDS011;53413;49.878;8.142;2024-02-21T12:55:50;7.97;;;2.47;;
66559;SDS011;53413;49.878;8.142;2024-02-21T12:58:16;8.60;;;2.30;;
66559;SDS011;53413;49.878;8.142;2024-02-21T13:00:41;7.63;;;2.25;;
66559;SDS011;53413;49.878;8.142;2024-02-21T13:03:07;7.77;;;2.40;;
66559;SDS011;53413;49.878;8.142;2024-02-21T13:05:34;5.72;;;1.95;;
66559;SDS011;53413;49.878;8.142;2024-02-21T13:08:00;6.50;;;2.10;;
66559;SDS011;53413;49.878;8.142;2024-02-21T13:10:26;6.70;;;2.03;;
66559;SDS011;53413;49.878;8.142;2024-02-21T13:12:51;6.03;;;2.20;;
66559;SDS011;53413;49.878;8.142;2024-02-21T13:15:17;7.30;;;2.23;;
66559;SDS011;53413;49.878;8.142;2024-02-21T13:17:43;6.60;;;2.15;;
66559;SDS011;53413;49.878;8.142;2024-02-21T13:20:09;7.50;;;2.60;;
66559;SDS011;53413;49.878;8.142;2024-02-21T13:22:35;8.73;;;2.73;;
66559;SDS011;53413;49.878;8.142;2024-02-21T13:25:01;10.80;;;2.92;;
66559;SDS011;53413;49.878;8.142;2024-02-21T13:27:27;7.93;;;2.00;;
66559;SDS011;53413;49.878;8.142;2024-02-21T13:29:52;6.70;;;2.00;;
66559;SDS011;53413;49.878;8.142;2024-02-21T13:32:18;6.20;;;2.33;;
66559;SDS011;53413;49.878;8.142;2024-02-21T13:34:43;5.30;;;2.17;;
66559;SDS011;53413;49.878;8.142;2024-02-21T13:37:09;7.57;;;2.10;;
66559;SDS011;53413;49.878;8.142;2024-02-21T13:39:35;6.60;;;2.33;;
66559;SDS011;53413;49.878;8.142;2024-02-21T13:42:01;6.80;;;2.08;;
66559;SDS011;53413;49.878;8.142;2024-02-21T13:44:27;7.07;;;1.88;;
66559;SDS011;53413;49.878;8.142;2024-02-21T13:46:53;6.63;;;2.07;;
66559;SDS011;53413;49.878;8.142;2024-02-21T13:49:18;7.60;;;2.10;;
66559;SDS011;53413;49.878;8.142;2024-02-21T13:51:43;6.70;;;1.70;;
66559;SDS011;53413;49.878;8.142;2024-02-21T13:54:10;5.53;;;1.63;;
66559;SDS011;53413;49.878;8.142;2024-02-21T13:56:36;7.20;;;1.70;;
66559;SDS011;53413;49.878;8.142;2024-02-21T13:59:01;5.83;;;1.73;;
66559;SDS011;53413;49.878;8.142;2024-02-21T14:01:27;6.63;;;1.90;;
66559;SDS011;53413;49.878;8.142;2024-02-21T14:03:56;4.78;;;1.67;;
66559;SDS011;53413;49.878;8.142;2024-02-21T14:06:22;5.70;;;1.90;;
66559;SDS011;53413;49.878;8.142;2024-02-21T14:08:47;5.50;;;1.60;;
66559;SDS011;53413;49.878;8.142;2024-02-21T14:11:12;7.17;;;2.50;;
66559;SDS011;53413;49.878;8.142;2024-02-21T14:13:39;5.72;;;1.83;;
66559;SDS011;53413;49.878;8.142;2024-02-21T14:16:08;6.40;;;2.17;;
66559;SDS011;53413;49.878;8.142;2024-02-21T14:18:36;7.30;;;2.00;;
66559;SDS011;53413;49.878;8.142;2024-02-21T14:21:03;7.32;;;1.88;;
66559;SDS011;53413;49.878;8.142;2024-02-21T14:23:28;6.40;;;2.10;;
66559;SDS011;53413;49.878;8.142;2024-02-21T14:25:54;7.35;;;2.20;;
66559;SDS011;53413;49.878;8.142;2024-02-21T14:28:19;7.53;;;2.00;;
66559;SDS011;53413;49.878;8.142;2024-02-21T14:30:44;6.90;;;1.70;;
66559;SDS011;53413;49.878;8.142;2024-02-21T14:33:12;6.30;;;1.95;;
66559;SDS011;53413;49.878;8.142;2024-02-21T14:35:38;6.00;;;1.77;;
66559;SDS011;53413;49.878;8.142;2024-02-21T14:38:03;8.57;;;2.50;;
66559;SDS011;53413;49.878;8.142;2024-02-21T14:40:29;6.07;;;1.80;;
66559;SDS011;53413;49.878;8.142;2024-02-21T14:42:55;5.43;;;1.80;;